createdAt,value
2017-12-27T11:56:06.330Z,984.78
2017-12-27T11:56:31.915Z,984.8
2017-12-27T11:56:57.454Z,984.79
2017-12-27T11:57:23.049Z,984.85
2017-12-27T11:57:48.614Z,984.78
2017-12-27T11:58:14.200Z,984.8
2017-12-27T11:58:39.880Z,984.8
2017-12-27T11:59:05.435Z,984.81
2017-12-27T11:59:31.025Z,984.79
2017-12-27T11:59:56.611Z,984.84
2017-12-27T12:00:22.197Z,984.83
2017-12-27T12:00:47.772Z,984.81
2017-12-27T12:01:13.355Z,984.81
2017-12-27T12:01:38.988Z,984.79
2017-12-27T12:02:04.638Z,984.8
2017-12-27T12:02:30.223Z,984.82
2017-12-27T12:02:55.813Z,984.75
2017-12-27T12:03:21.388Z,984.8
2017-12-27T12:03:46.960Z,984.83
2017-12-27T12:04:12.565Z,984.78
2017-12-27T12:04:38.164Z,984.77
2017-12-27T12:05:03.759Z,984.79
2017-12-27T12:05:29.312Z,984.78
2017-12-27T12:05:54.941Z,984.73
2017-12-27T12:06:20.519Z,984.73
2017-12-27T12:06:46.094Z,984.71
2017-12-27T12:07:11.676Z,984.75
2017-12-27T12:07:37.233Z,984.72
2017-12-27T12:08:02.788Z,984.71
2017-12-27T12:08:28.339Z,984.77
2017-12-27T12:08:53.918Z,984.73
2017-12-27T12:09:19.505Z,984.7
2017-12-27T12:09:45.078Z,984.67
2017-12-27T12:10:10.658Z,984.69
2017-12-27T12:10:36.239Z,984.72
2017-12-27T12:11:01.819Z,984.72
2017-12-27T12:11:27.389Z,984.68
2017-12-27T12:11:52.980Z,984.77
2017-12-27T12:12:18.563Z,984.69
2017-12-27T12:12:44.132Z,984.69
2017-12-27T12:13:09.695Z,984.74
2017-12-27T12:13:35.320Z,984.61
2017-12-27T12:14:00.916Z,984.67
2017-12-27T12:14:26.492Z,984.71
2017-12-27T12:14:52.052Z,984.7
2017-12-27T12:15:17.678Z,984.7
2017-12-27T12:15:43.262Z,984.7
2017-12-27T12:16:08.829Z,984.65
2017-12-27T12:16:34.393Z,984.73
2017-12-27T12:16:59.996Z,984.74
2017-12-27T12:17:25.595Z,984.67
2017-12-27T12:17:51.362Z,984.66
2017-12-27T12:18:17.047Z,984.7
2017-12-27T12:18:42.644Z,984.67
2017-12-27T12:19:08.221Z,984.69
2017-12-27T12:19:33.790Z,984.66
2017-12-27T12:19:59.425Z,984.64
2017-12-27T12:20:25.011Z,984.61
2017-12-27T12:20:50.613Z,984.61
2017-12-27T12:21:16.187Z,984.67
2017-12-27T12:21:41.772Z,984.58
2017-12-27T12:22:07.339Z,984.61
2017-12-27T12:22:33.048Z,984.6
2017-12-27T12:22:58.654Z,984.61
2017-12-27T12:23:24.183Z,984.63
2017-12-27T12:23:49.757Z,984.52
2017-12-27T12:24:15.428Z,984.57
2017-12-27T12:24:41.055Z,984.63
2017-12-27T12:25:06.613Z,984.65
2017-12-27T12:25:32.217Z,984.55
2017-12-27T12:25:57.810Z,984.56
2017-12-27T12:26:23.389Z,984.56
2017-12-27T12:26:48.977Z,984.59
2017-12-27T12:27:14.584Z,984.59
2017-12-27T12:27:40.193Z,984.57
2017-12-27T12:28:05.752Z,984.62
2017-12-27T12:28:31.385Z,984.53
2017-12-27T12:28:56.968Z,984.53
2017-12-27T12:29:22.542Z,984.58
2017-12-27T12:29:48.120Z,984.59
2017-12-27T12:30:13.704Z,984.58
2017-12-27T12:30:39.292Z,984.57
2017-12-27T12:31:04.842Z,984.62
2017-12-27T12:31:30.419Z,984.56
2017-12-27T12:31:55.995Z,984.56
2017-12-27T12:32:21.569Z,984.56
2017-12-27T12:32:47.171Z,984.58
2017-12-27T12:33:12.726Z,984.55
2017-12-27T12:33:38.309Z,984.57
2017-12-27T12:34:03.903Z,984.57
2017-12-27T12:34:29.469Z,984.53
2017-12-27T12:34:55.038Z,984.56
2017-12-27T12:35:20.616Z,984.52
2017-12-27T12:35:46.185Z,984.52
2017-12-27T12:36:11.766Z,984.51
2017-12-27T12:36:37.369Z,984.48
2017-12-27T12:37:02.968Z,984.45
2017-12-27T12:37:28.575Z,984.52
2017-12-27T12:37:54.167Z,984.49
2017-12-27T12:38:19.748Z,984.5
2017-12-27T12:38:45.333Z,984.51
2017-12-27T12:39:10.908Z,984.47
2017-12-27T12:39:36.455Z,984.45
2017-12-27T12:40:02.030Z,984.48
2017-12-27T12:40:27.761Z,984.44
2017-12-27T12:40:53.419Z,984.46
2017-12-27T12:41:19.016Z,984.41
2017-12-27T12:41:44.596Z,984.44
2017-12-27T12:42:10.163Z,984.37
2017-12-27T12:42:35.718Z,984.36
2017-12-27T12:43:01.287Z,984.41
2017-12-27T12:43:26.824Z,984.38
2017-12-27T12:43:52.528Z,984.38
2017-12-27T12:44:18.119Z,984.34
2017-12-27T12:44:43.664Z,984.36
2017-12-27T12:45:09.297Z,984.39
2017-12-27T12:45:34.849Z,984.36
2017-12-27T12:46:00.412Z,984.26
2017-12-27T12:46:26.039Z,984.29
2017-12-27T12:46:51.627Z,984.31
2017-12-27T12:47:17.192Z,984.22
2017-12-27T12:47:42.737Z,984.25
2017-12-27T12:48:08.307Z,984.22
2017-12-27T12:48:33.843Z,984.23
2017-12-27T12:48:59.434Z,984.24
2017-12-27T12:49:25.032Z,984.23
2017-12-27T12:49:50.613Z,984.2
2017-12-27T12:50:16.189Z,984.22
2017-12-27T12:50:41.757Z,984.21
2017-12-27T12:51:07.319Z,984.21
2017-12-27T12:51:32.957Z,984.22
2017-12-27T12:51:58.534Z,984.23
2017-12-27T12:52:24.096Z,984.18
2017-12-27T12:52:49.662Z,984.24
2017-12-27T12:53:15.229Z,984.14
2017-12-27T12:53:40.812Z,984.18
2017-12-27T12:54:06.403Z,984.18
2017-12-27T12:54:31.968Z,984.19
2017-12-27T12:54:57.558Z,984.13
2017-12-27T12:55:23.151Z,984.15
2017-12-27T12:55:48.746Z,984.15
2017-12-27T12:56:14.316Z,984.12
2017-12-27T12:56:39.873Z,984.13
2017-12-27T12:57:05.447Z,984.07
2017-12-27T12:57:31.014Z,984.08
2017-12-27T12:57:56.598Z,984.1
2017-12-27T12:58:22.154Z,984.03
2017-12-27T12:58:47.716Z,984.06
2017-12-27T12:59:13.287Z,984.04
2017-12-27T12:59:38.888Z,984.06
2017-12-27T13:00:04.443Z,984
2017-12-27T13:00:30.009Z,984.04
2017-12-27T13:00:55.693Z,984.06
2017-12-27T13:01:21.235Z,983.99
2017-12-27T13:01:46.811Z,983.97
2017-12-27T13:02:12.439Z,983.98
2017-12-27T13:02:38.006Z,983.95
2017-12-27T13:03:03.580Z,983.94
2017-12-27T13:03:29.178Z,983.92
2017-12-27T13:03:54.776Z,983.93
2017-12-27T13:04:20.313Z,983.98
2017-12-27T13:04:45.892Z,983.94
2017-12-27T13:05:11.471Z,983.97
2017-12-27T13:05:37.044Z,983.93
2017-12-27T13:06:02.641Z,983.92
2017-12-27T13:06:28.198Z,983.92
2017-12-27T13:06:53.767Z,983.89
2017-12-27T13:07:19.346Z,983.88
2017-12-27T13:07:44.931Z,983.88
2017-12-27T13:08:10.482Z,983.88
2017-12-27T13:08:36.054Z,983.89
2017-12-27T13:09:01.601Z,983.89
2017-12-27T13:09:27.201Z,983.85
2017-12-27T13:09:52.810Z,983.87
2017-12-27T13:10:18.442Z,983.88
2017-12-27T13:10:43.990Z,983.9
2017-12-27T13:11:09.566Z,983.85
2017-12-27T13:11:35.248Z,983.9
2017-12-27T13:12:00.738Z,983.9
2017-12-27T13:12:26.313Z,983.88
2017-12-27T13:12:51.904Z,983.92
2017-12-27T13:13:17.474Z,983.87
2017-12-27T13:13:43.063Z,983.87
2017-12-27T13:14:08.632Z,983.9
2017-12-27T13:14:34.188Z,983.9
2017-12-27T13:14:59.760Z,983.91
2017-12-27T13:15:25.346Z,983.87
2017-12-27T13:15:50.907Z,983.91
2017-12-27T13:16:16.506Z,983.88
2017-12-27T13:16:42.067Z,983.91
2017-12-27T13:17:07.618Z,983.89
2017-12-27T13:17:33.200Z,983.91
2017-12-27T13:17:58.779Z,983.9
2017-12-27T13:18:24.328Z,983.91
2017-12-27T13:18:49.939Z,983.87
2017-12-27T13:19:15.521Z,983.88
2017-12-27T13:19:41.111Z,983.88
2017-12-27T13:20:06.681Z,983.89
2017-12-27T13:20:32.241Z,983.89
2017-12-27T13:20:57.831Z,983.89
2017-12-27T13:21:23.370Z,983.92
2017-12-27T13:21:48.955Z,983.91
2017-12-27T13:22:14.510Z,983.94
2017-12-27T13:22:40.098Z,983.91
2017-12-27T13:23:05.683Z,983.85
2017-12-27T13:23:31.257Z,983.9
2017-12-27T13:23:56.821Z,983.91
2017-12-27T13:24:22.415Z,983.9
2017-12-27T13:24:47.999Z,983.88
2017-12-27T13:25:13.579Z,983.91
2017-12-27T13:25:39.160Z,983.93
2017-12-27T13:26:04.803Z,983.92
2017-12-27T13:26:30.378Z,983.95
2017-12-27T13:26:55.931Z,983.9
2017-12-27T13:27:21.529Z,983.88
2017-12-27T13:27:47.112Z,983.91
2017-12-27T13:28:12.671Z,983.93
2017-12-27T13:28:38.474Z,983.91
2017-12-27T13:29:04.054Z,983.88
2017-12-27T13:29:29.602Z,983.91
2017-12-27T13:29:55.163Z,983.91
2017-12-27T13:30:20.808Z,983.91
2017-12-27T13:30:46.422Z,983.86
2017-12-27T13:31:11.982Z,983.86
2017-12-27T13:31:37.548Z,983.89
2017-12-27T13:32:03.149Z,983.84
2017-12-27T13:32:28.722Z,983.89
2017-12-27T13:32:54.307Z,983.88
2017-12-27T13:33:19.857Z,983.88
2017-12-27T13:33:45.427Z,983.92
2017-12-27T13:34:11.012Z,983.88
2017-12-27T13:34:36.621Z,983.89
2017-12-27T13:35:02.205Z,983.87
2017-12-27T13:35:27.819Z,983.86
2017-12-27T13:35:53.363Z,983.87
2017-12-27T13:36:18.944Z,983.91
2017-12-27T13:36:44.531Z,983.89
2017-12-27T13:37:10.189Z,983.87
2017-12-27T13:37:35.757Z,983.85
2017-12-27T13:38:01.311Z,983.83
2017-12-27T13:38:26.908Z,983.84
2017-12-27T13:38:52.532Z,983.89
2017-12-27T13:39:18.104Z,983.82
2017-12-27T13:39:43.719Z,983.84
2017-12-27T13:40:09.359Z,983.86
2017-12-27T13:40:34.925Z,983.85
2017-12-27T13:41:00.581Z,983.9
2017-12-27T13:41:26.183Z,983.87
2017-12-27T13:41:51.754Z,983.82
2017-12-27T13:42:17.323Z,983.83
2017-12-27T13:42:42.883Z,983.92
2017-12-27T13:43:08.444Z,983.85
2017-12-27T13:43:34.003Z,983.84
2017-12-27T13:43:59.576Z,983.82
2017-12-27T13:44:25.163Z,983.84
2017-12-27T13:44:50.731Z,983.84
2017-12-27T13:45:16.351Z,983.88
2017-12-27T13:45:41.915Z,983.84
2017-12-27T13:46:07.550Z,983.86
2017-12-27T13:46:33.179Z,983.83
2017-12-27T13:46:58.833Z,983.87
2017-12-27T13:47:24.475Z,983.87
2017-12-27T13:47:50.038Z,983.9
2017-12-27T13:48:15.592Z,983.91
2017-12-27T13:48:41.171Z,983.88
2017-12-27T13:49:06.742Z,983.87
2017-12-27T13:49:32.302Z,983.89
2017-12-27T13:49:57.859Z,983.88
2017-12-27T13:50:23.456Z,983.89
2017-12-27T13:50:49.031Z,983.94
2017-12-27T13:51:14.640Z,983.93
2017-12-27T13:51:40.176Z,983.93
2017-12-27T13:52:05.729Z,983.94
2017-12-27T13:52:31.318Z,983.94
2017-12-27T13:52:56.899Z,983.92
2017-12-27T13:53:22.450Z,983.94
2017-12-27T13:53:48.038Z,983.94
2017-12-27T13:54:13.624Z,983.94
2017-12-27T13:54:39.234Z,983.97
2017-12-27T13:55:04.829Z,983.94
2017-12-27T13:55:30.372Z,983.92
2017-12-27T13:55:55.928Z,983.95
2017-12-27T13:56:21.588Z,983.93
2017-12-27T13:56:47.148Z,983.92
2017-12-27T13:57:12.700Z,983.9
2017-12-27T13:57:38.276Z,983.92
2017-12-27T13:58:03.857Z,983.89
2017-12-27T13:58:29.453Z,983.83
2017-12-27T13:58:55.065Z,983.84
2017-12-27T13:59:20.619Z,983.89
2017-12-27T13:59:46.185Z,983.92
2017-12-27T14:00:11.733Z,983.89
2017-12-27T14:00:37.301Z,983.87
2017-12-27T14:01:02.857Z,983.86
2017-12-27T14:01:28.500Z,983.89
2017-12-27T14:01:54.085Z,983.92
2017-12-27T14:02:19.628Z,983.82
2017-12-27T14:02:45.253Z,983.88
2017-12-27T14:03:10.826Z,983.85
2017-12-27T14:03:36.375Z,983.85
2017-12-27T14:04:01.958Z,983.91
2017-12-27T14:04:27.544Z,983.87
2017-12-27T14:04:53.115Z,983.87
2017-12-27T14:05:18.700Z,983.88
2017-12-27T14:05:44.254Z,983.9
2017-12-27T14:06:09.808Z,983.87
2017-12-27T14:06:35.406Z,983.9
2017-12-27T14:07:01.052Z,983.93
2017-12-27T14:07:26.615Z,983.93
2017-12-27T14:07:52.218Z,983.9
2017-12-27T14:08:17.771Z,983.9
2017-12-27T14:08:43.367Z,983.91
2017-12-27T14:09:08.939Z,983.89
2017-12-27T14:09:34.528Z,983.88
2017-12-27T14:10:00.100Z,983.88
2017-12-27T14:10:25.674Z,983.9
2017-12-27T14:10:51.331Z,983.89
2017-12-27T14:11:16.819Z,983.9
2017-12-27T14:11:42.373Z,983.9
2017-12-27T14:12:07.962Z,983.88
2017-12-27T14:12:33.531Z,983.88
2017-12-27T14:12:59.096Z,983.87
2017-12-27T14:13:24.689Z,983.89
2017-12-27T14:13:50.280Z,983.89
2017-12-27T14:14:15.839Z,983.85
2017-12-27T14:14:41.437Z,983.87
2017-12-27T14:15:07.034Z,983.88
2017-12-27T14:15:32.597Z,983.85
2017-12-27T14:15:58.152Z,983.87
2017-12-27T14:16:23.727Z,983.86
2017-12-27T14:16:49.301Z,983.81
2017-12-27T14:17:14.866Z,983.84
2017-12-27T14:17:40.458Z,983.86
2017-12-27T14:18:06.017Z,983.87
2017-12-27T14:18:31.632Z,983.85
2017-12-27T14:18:57.229Z,983.86
2017-12-27T14:19:22.798Z,983.84
2017-12-27T14:19:48.504Z,983.84
2017-12-27T14:20:14.047Z,983.82
2017-12-27T14:20:39.609Z,983.86
2017-12-27T14:21:05.184Z,983.86
2017-12-27T14:21:30.737Z,983.86
2017-12-27T14:21:56.322Z,983.85
2017-12-27T14:22:21.852Z,983.81
2017-12-27T14:22:47.414Z,983.85
2017-12-27T14:23:13.026Z,983.82
2017-12-27T14:23:38.547Z,983.84
2017-12-27T14:24:04.201Z,983.83
2017-12-27T14:24:29.772Z,983.85
2017-12-27T14:24:55.345Z,983.84
2017-12-27T14:25:20.898Z,983.87
2017-12-27T14:25:46.470Z,983.81
2017-12-27T14:26:12.040Z,983.85
2017-12-27T14:26:37.621Z,983.82
2017-12-27T14:27:03.215Z,983.82
2017-12-27T14:27:28.725Z,983.84
2017-12-27T14:27:54.288Z,983.84
2017-12-27T14:28:19.842Z,983.85
2017-12-27T14:28:45.452Z,983.81
2017-12-27T14:29:11.042Z,983.81
2017-12-27T14:29:36.587Z,983.77
2017-12-27T14:30:02.192Z,983.79
2017-12-27T14:30:27.827Z,983.78
2017-12-27T14:30:53.422Z,983.8
2017-12-27T14:31:18.992Z,983.8
2017-12-27T14:31:44.579Z,983.77
2017-12-27T14:32:10.163Z,983.8
2017-12-27T14:32:35.738Z,983.83
2017-12-27T14:33:01.304Z,983.77
2017-12-27T14:33:26.896Z,983.76
2017-12-27T14:33:52.514Z,983.79
2017-12-27T14:34:18.099Z,983.79
2017-12-27T14:34:43.685Z,983.76
2017-12-27T14:35:09.257Z,983.78
2017-12-27T14:35:34.840Z,983.82
2017-12-27T14:36:00.407Z,983.78
2017-12-27T14:36:25.981Z,983.79
2017-12-27T14:36:51.565Z,983.81
2017-12-27T14:37:17.259Z,983.8
2017-12-27T14:37:42.846Z,983.79
2017-12-27T14:38:08.397Z,983.78
2017-12-27T14:38:34.040Z,983.8
2017-12-27T14:38:59.607Z,983.79
2017-12-27T14:39:25.219Z,983.8
2017-12-27T14:39:50.802Z,983.8
2017-12-27T14:40:16.542Z,983.81
2017-12-27T14:40:42.096Z,983.87
2017-12-27T14:41:07.661Z,983.81
2017-12-27T14:41:33.251Z,983.85
2017-12-27T14:41:58.841Z,983.84
2017-12-27T14:42:24.424Z,983.86
2017-12-27T14:42:49.968Z,983.85
2017-12-27T14:43:15.585Z,983.8
2017-12-27T14:43:41.118Z,983.8
2017-12-27T14:44:06.689Z,983.85
2017-12-27T14:44:32.251Z,983.82
2017-12-27T14:44:57.808Z,983.81
2017-12-27T14:45:23.378Z,983.81
2017-12-27T14:45:49.041Z,983.83
2017-12-27T14:46:14.601Z,983.86
2017-12-27T14:46:40.157Z,983.86
2017-12-27T14:47:05.725Z,983.85
2017-12-27T14:47:31.285Z,983.86
2017-12-27T14:47:56.851Z,983.85
2017-12-27T14:48:22.423Z,983.83
2017-12-27T14:48:48.002Z,983.86
2017-12-27T14:49:13.581Z,983.85
2017-12-27T14:49:39.226Z,983.86
2017-12-27T14:50:04.802Z,983.88
2017-12-27T14:50:30.394Z,983.9
2017-12-27T14:50:55.951Z,983.87
2017-12-27T14:51:21.518Z,983.91
2017-12-27T14:51:47.116Z,983.86
2017-12-27T14:52:12.685Z,983.88
2017-12-27T14:52:38.252Z,983.93
2017-12-27T14:53:03.829Z,983.93
2017-12-27T14:53:29.406Z,983.89
2017-12-27T14:53:54.946Z,983.94
2017-12-27T14:54:20.544Z,983.92
2017-12-27T14:54:46.109Z,983.91
2017-12-27T14:55:11.664Z,983.91
2017-12-27T14:55:37.229Z,983.89
2017-12-27T14:56:02.781Z,983.88
2017-12-27T14:56:28.355Z,983.95
2017-12-27T14:56:53.947Z,983.94
2017-12-27T14:57:19.599Z,983.93
2017-12-27T14:57:45.199Z,983.93
2017-12-27T14:58:10.782Z,983.91
2017-12-27T14:58:36.329Z,983.93
2017-12-27T14:59:01.885Z,983.95
2017-12-27T14:59:27.463Z,983.91
2017-12-27T14:59:53.051Z,983.91
2017-12-27T15:00:18.623Z,983.99
2017-12-27T15:00:44.181Z,983.92
2017-12-27T15:01:09.763Z,983.94
2017-12-27T15:01:35.406Z,983.96
2017-12-27T15:02:00.971Z,983.96
2017-12-27T15:02:26.549Z,983.91
2017-12-27T15:02:52.160Z,983.88
2017-12-27T15:03:17.718Z,983.92
2017-12-27T15:03:43.300Z,983.93
2017-12-27T15:04:08.873Z,983.95
2017-12-27T15:04:34.445Z,983.89
2017-12-27T15:04:59.999Z,983.92
2017-12-27T15:05:25.600Z,983.89
2017-12-27T15:05:51.175Z,983.94
2017-12-27T15:06:16.720Z,983.92
2017-12-27T15:06:42.269Z,983.91
2017-12-27T15:07:07.883Z,983.92
2017-12-27T15:07:33.464Z,983.89
2017-12-27T15:07:59.018Z,983.87
2017-12-27T15:08:24.602Z,983.88
2017-12-27T15:08:50.182Z,983.89
2017-12-27T15:09:15.778Z,983.88
2017-12-27T15:09:41.392Z,983.89
2017-12-27T15:10:06.970Z,983.93
2017-12-27T15:10:32.544Z,983.96
2017-12-27T15:10:58.150Z,983.9
2017-12-27T15:11:23.735Z,983.94
2017-12-27T15:11:49.348Z,983.88
2017-12-27T15:12:14.901Z,983.87
2017-12-27T15:12:40.491Z,983.91
2017-12-27T15:13:06.068Z,983.85
2017-12-27T15:13:31.613Z,983.87
2017-12-27T15:13:57.171Z,983.9
2017-12-27T15:14:22.752Z,983.86
2017-12-27T15:14:48.353Z,983.83
2017-12-27T15:15:13.937Z,983.85
2017-12-27T15:15:39.488Z,983.85
2017-12-27T15:16:05.075Z,983.81
2017-12-27T15:16:30.668Z,983.85
2017-12-27T15:16:56.211Z,983.81
2017-12-27T15:17:21.787Z,983.84
2017-12-27T15:17:47.365Z,983.8
2017-12-27T15:18:12.935Z,983.81
2017-12-27T15:18:38.504Z,983.82
2017-12-27T15:19:04.086Z,983.82
2017-12-27T15:19:29.637Z,983.82
2017-12-27T15:19:55.229Z,983.8
2017-12-27T15:20:20.795Z,983.79
2017-12-27T15:20:46.360Z,983.81
2017-12-27T15:21:11.990Z,983.86
2017-12-27T15:21:37.552Z,983.83
2017-12-27T15:22:03.180Z,983.81
2017-12-27T15:22:28.783Z,983.83
2017-12-27T15:22:54.360Z,983.83
2017-12-27T15:23:19.920Z,983.84
2017-12-27T15:23:45.475Z,983.87
2017-12-27T15:24:11.036Z,983.82
2017-12-27T15:24:36.604Z,983.88
2017-12-27T15:25:02.161Z,983.9
2017-12-27T15:25:27.747Z,983.89
2017-12-27T15:25:53.322Z,983.84
2017-12-27T15:26:18.893Z,983.88
2017-12-27T15:26:44.440Z,983.91
2017-12-27T15:27:10.020Z,983.89
2017-12-27T15:27:35.587Z,983.89
2017-12-27T15:28:01.171Z,983.93
2017-12-27T15:28:26.799Z,983.91
2017-12-27T15:28:52.379Z,983.93
2017-12-27T15:29:17.991Z,983.89
2017-12-27T15:29:43.549Z,983.92
2017-12-27T15:30:09.125Z,983.91
2017-12-27T15:30:34.746Z,983.89
2017-12-27T15:31:00.325Z,983.87
2017-12-27T15:31:25.877Z,983.91
2017-12-27T15:31:51.475Z,983.9
2017-12-27T15:32:17.037Z,983.91
2017-12-27T15:32:42.631Z,983.89
2017-12-27T15:33:08.201Z,983.96
2017-12-27T15:33:33.774Z,983.88
2017-12-27T15:33:59.352Z,983.91
2017-12-27T15:34:24.930Z,983.94
2017-12-27T15:34:50.502Z,983.92
2017-12-27T15:35:16.083Z,983.88
2017-12-27T15:35:41.634Z,983.91
2017-12-27T15:36:07.195Z,983.91
2017-12-27T15:36:32.771Z,983.95
2017-12-27T15:36:58.375Z,983.94
2017-12-27T15:37:23.942Z,983.96
2017-12-27T15:37:49.509Z,983.92
2017-12-27T15:38:15.192Z,983.94
2017-12-27T15:38:40.716Z,983.96
2017-12-27T15:39:06.263Z,983.99
2017-12-27T15:39:31.865Z,983.96
2017-12-27T15:39:57.471Z,983.92
2017-12-27T15:40:23.057Z,983.95
2017-12-27T15:40:48.618Z,983.93
2017-12-27T15:41:14.199Z,983.91
2017-12-27T15:41:39.757Z,983.9
2017-12-27T15:42:05.440Z,983.9
2017-12-27T15:42:31.023Z,983.86
2017-12-27T15:42:56.583Z,983.94
2017-12-27T15:43:22.169Z,983.89
2017-12-27T15:43:47.746Z,983.93
2017-12-27T15:44:13.331Z,983.9
2017-12-27T15:44:38.966Z,983.93
2017-12-27T15:45:04.547Z,983.91
2017-12-27T15:45:30.107Z,983.94
2017-12-27T15:45:55.670Z,983.91
2017-12-27T15:46:21.236Z,983.95
2017-12-27T15:46:46.843Z,983.98
2017-12-27T15:47:12.405Z,983.95
2017-12-27T15:47:37.981Z,983.96
2017-12-27T15:48:03.538Z,983.99
2017-12-27T15:48:29.109Z,983.99
2017-12-27T15:48:54.786Z,983.95
2017-12-27T15:49:20.394Z,983.95
2017-12-27T15:49:45.972Z,983.97
2017-12-27T15:50:11.568Z,983.95
2017-12-27T15:50:37.129Z,983.95
2017-12-27T15:51:02.707Z,983.96
2017-12-27T15:51:28.281Z,983.97
2017-12-27T15:51:53.853Z,983.96
2017-12-27T15:52:19.423Z,983.99
2017-12-27T15:52:44.993Z,983.95
2017-12-27T15:53:10.663Z,983.95
2017-12-27T15:53:36.203Z,983.93
2017-12-27T15:54:01.794Z,984
2017-12-27T15:54:27.436Z,983.98
2017-12-27T15:54:53.023Z,983.97
2017-12-27T15:55:18.593Z,983.97
2017-12-27T15:55:44.164Z,984
2017-12-27T15:56:09.787Z,984
2017-12-27T15:56:35.311Z,983.99
2017-12-27T15:57:00.875Z,984
2017-12-27T15:57:26.457Z,983.98
2017-12-27T15:57:52.018Z,984
2017-12-27T15:58:17.616Z,984.01
2017-12-27T15:58:43.183Z,984.03
2017-12-27T15:59:08.730Z,984.07
2017-12-27T15:59:34.294Z,984.04
2017-12-27T15:59:59.850Z,984.01
2017-12-27T16:00:25.445Z,984.06
2017-12-27T16:00:50.979Z,984.08
2017-12-27T16:01:16.601Z,984.04
2017-12-27T16:01:42.223Z,984.04
2017-12-27T16:02:07.796Z,984.04
2017-12-27T16:02:33.455Z,984.07
2017-12-27T16:02:59.018Z,984.05
2017-12-27T16:03:24.581Z,984.06
2017-12-27T16:03:50.153Z,984.02
2017-12-27T16:04:15.706Z,984.07
2017-12-27T16:04:41.266Z,984.09
2017-12-27T16:05:06.900Z,984.06
2017-12-27T16:05:32.465Z,984.08
2017-12-27T16:05:58.017Z,984.06
2017-12-27T16:06:23.622Z,984.09
2017-12-27T16:06:49.178Z,984.1
2017-12-27T16:07:14.732Z,984.11
2017-12-27T16:07:40.331Z,984.12
2017-12-27T16:08:05.910Z,984.13
2017-12-27T16:08:31.488Z,984.07
2017-12-27T16:08:57.053Z,984.13
2017-12-27T16:09:22.644Z,984.15
2017-12-27T16:09:48.221Z,984.1
2017-12-27T16:10:13.809Z,984.16
2017-12-27T16:10:39.374Z,984.14
2017-12-27T16:11:04.948Z,984.15
2017-12-27T16:11:30.519Z,984.13
2017-12-27T16:11:56.120Z,984.1
2017-12-27T16:12:21.692Z,984.16
2017-12-27T16:12:47.248Z,984.15
2017-12-27T16:13:12.820Z,984.15
2017-12-27T16:13:38.387Z,984.15
2017-12-27T16:14:04.000Z,984.17
2017-12-27T16:14:29.567Z,984.12
2017-12-27T16:14:55.139Z,984.13
2017-12-27T16:15:20.710Z,984.16
2017-12-27T16:15:46.263Z,984.13
2017-12-27T16:16:11.845Z,984.16
2017-12-27T16:16:37.409Z,984.12
2017-12-27T16:17:03.045Z,984.16
2017-12-27T16:17:28.690Z,984.14
2017-12-27T16:17:54.260Z,984.15
2017-12-27T16:18:19.824Z,984.14
2017-12-27T16:18:45.393Z,984.12
2017-12-27T16:19:10.965Z,984.12
2017-12-27T16:19:36.529Z,984.13
2017-12-27T16:20:02.121Z,984.12
2017-12-27T16:20:27.686Z,984.13
2017-12-27T16:20:53.271Z,984.13
2017-12-27T16:21:18.845Z,984.15
2017-12-27T16:21:44.471Z,984.15
2017-12-27T16:22:10.140Z,984.16
2017-12-27T16:23:24.495Z,984.15
2017-12-27T16:23:50.046Z,984.12
2017-12-27T16:24:15.784Z,984.13
2017-12-27T16:24:41.476Z,984.17
2017-12-27T16:25:07.036Z,984.15
2017-12-27T16:25:32.618Z,984.13
2017-12-27T16:25:58.227Z,984.15
2017-12-27T16:26:23.793Z,984.15
2017-12-27T16:26:49.380Z,984.15
2017-12-27T16:27:14.943Z,984.17
2017-12-27T16:27:40.530Z,984.14
2017-12-27T16:28:06.101Z,984.17
2017-12-27T16:28:31.664Z,984.17
2017-12-27T16:28:57.260Z,984.21
2017-12-27T16:29:22.834Z,984.12
2017-12-27T16:29:48.384Z,984.15
2017-12-27T16:30:13.951Z,984.17
2017-12-27T16:30:39.551Z,984.15
2017-12-27T16:31:05.182Z,984.18
2017-12-27T16:31:30.773Z,984.16
2017-12-27T16:31:56.357Z,984.12
2017-12-27T16:32:21.921Z,984.15
2017-12-27T16:32:47.512Z,984.15
2017-12-27T16:33:13.051Z,984.18
2017-12-27T16:33:38.587Z,984.18
2017-12-27T16:34:04.233Z,984.14
2017-12-27T16:34:29.794Z,984.17
2017-12-27T16:34:55.353Z,984.16
2017-12-27T16:35:21.010Z,984.22
2017-12-27T16:35:46.587Z,984.2
2017-12-27T16:36:12.147Z,984.22
2017-12-27T16:36:37.734Z,984.24
2017-12-27T16:37:03.334Z,984.25
2017-12-27T16:37:28.859Z,984.28
2017-12-27T16:37:54.438Z,984.26
2017-12-27T16:38:19.972Z,984.27
2017-12-27T16:38:45.578Z,984.28
2017-12-27T16:39:11.158Z,984.28
2017-12-27T16:39:36.727Z,984.28
2017-12-27T16:40:02.291Z,984.27
2017-12-27T16:40:27.922Z,984.27
2017-12-27T16:40:53.498Z,984.3
2017-12-27T16:41:19.049Z,984.27
2017-12-27T16:41:44.597Z,984.28
2017-12-27T16:42:10.262Z,984.29
2017-12-27T16:42:35.831Z,984.26
2017-12-27T16:43:01.404Z,984.27
2017-12-27T16:43:27.022Z,984.3
2017-12-27T16:43:52.579Z,984.27
2017-12-27T16:44:18.159Z,984.25
2017-12-27T16:44:43.705Z,984.29
2017-12-27T16:45:09.313Z,984.27
2017-12-27T16:45:34.894Z,984.28
2017-12-27T16:46:00.608Z,984.29
2017-12-27T16:46:26.271Z,984.26
2017-12-27T16:46:51.837Z,984.23
2017-12-27T16:47:17.442Z,984.28
2017-12-27T16:47:43.052Z,984.28
2017-12-27T16:48:08.738Z,984.28
2017-12-27T16:48:34.306Z,984.26
2017-12-27T16:49:48.240Z,984.26
2017-12-27T16:50:13.801Z,984.23
2017-12-27T16:50:39.367Z,984.25
2017-12-27T16:51:04.921Z,984.28
2017-12-27T16:51:30.501Z,984.28
2017-12-27T16:51:56.051Z,984.32
2017-12-27T16:52:21.617Z,984.29
2017-12-27T16:52:47.252Z,984.28
2017-12-27T16:53:12.830Z,984.29
2017-12-27T16:53:38.400Z,984.33
2017-12-27T16:54:03.951Z,984.3
2017-12-27T16:54:29.510Z,984.35
2017-12-27T16:54:55.086Z,984.3
2017-12-27T16:55:20.653Z,984.36
2017-12-27T16:55:46.209Z,984.34
2017-12-27T16:56:11.818Z,984.36
2017-12-27T16:56:37.483Z,984.34
2017-12-27T16:57:03.060Z,984.34
2017-12-27T16:57:28.639Z,984.37
2017-12-27T16:57:54.203Z,984.35
2017-12-27T16:58:19.810Z,984.35
2017-12-27T16:58:45.380Z,984.38
2017-12-27T16:59:10.927Z,984.34
2017-12-27T16:59:36.606Z,984.38
2017-12-27T17:00:02.152Z,984.38
2017-12-27T17:00:27.731Z,984.37
2017-12-27T17:00:53.309Z,984.37
2017-12-27T17:01:18.877Z,984.45
2017-12-27T17:01:44.466Z,984.38
2017-12-27T17:02:10.108Z,984.39
2017-12-27T17:02:35.670Z,984.38
2017-12-27T17:03:01.245Z,984.4
2017-12-27T17:03:26.777Z,984.4
2017-12-27T17:03:52.361Z,984.46
2017-12-27T17:04:17.939Z,984.48
2017-12-27T17:04:43.503Z,984.44
2017-12-27T17:05:09.070Z,984.44
2017-12-27T17:05:34.650Z,984.47
2017-12-27T17:06:00.209Z,984.47
2017-12-27T17:06:25.793Z,984.47
2017-12-27T17:06:51.336Z,984.42
2017-12-27T17:07:17.036Z,984.45
2017-12-27T17:07:42.611Z,984.46
2017-12-27T17:08:08.175Z,984.48
2017-12-27T17:08:33.916Z,984.47
2017-12-27T17:08:59.465Z,984.47
2017-12-27T17:09:25.039Z,984.45
2017-12-27T17:09:50.586Z,984.5
2017-12-27T17:10:16.220Z,984.5
2017-12-27T17:10:41.800Z,984.52
2017-12-27T17:11:07.366Z,984.52
2017-12-27T17:11:32.934Z,984.52
2017-12-27T17:11:58.570Z,984.54
2017-12-27T17:12:24.164Z,984.55
2017-12-27T17:12:49.774Z,984.55
2017-12-27T17:13:15.465Z,984.56
2017-12-27T17:13:41.017Z,984.52
2017-12-27T17:14:06.588Z,984.52
2017-12-27T17:14:32.171Z,984.53
2017-12-27T17:14:57.750Z,984.52
2017-12-27T17:15:23.323Z,984.5
2017-12-27T17:15:48.902Z,984.52
2017-12-27T17:16:14.457Z,984.51
2017-12-27T17:16:40.030Z,984.54
2017-12-27T17:17:05.593Z,984.47
2017-12-27T17:17:31.160Z,984.51
2017-12-27T17:17:56.716Z,984.55